createdAt,value
2022-08-07T00:04:03.748Z,20.65
2022-08-07T00:18:53.951Z,20.50
2022-08-07T00:33:47.813Z,20.24
2022-08-07T00:48:35.345Z,20.10
2022-08-07T01:03:56.206Z,19.69
2022-08-07T01:18:16.666Z,19.45
2022-08-07T01:33:07.136Z,19.28
2022-08-07T01:48:21.380Z,19.19
2022-08-07T02:03:19.302Z,18.90
2022-08-07T02:17:49.441Z,18.77
2022-08-07T02:33:00.195Z,18.74
2022-08-07T02:47:45.121Z,18.63
2022-08-07T03:02:21.681Z,18.54
2022-08-07T03:17:13.309Z,18.45
2022-08-07T03:32:04.528Z,18.23
2022-08-07T03:47:10.837Z,18.24
2022-08-07T04:01:47.816Z,18.07
2022-08-07T04:16:39.127Z,17.97
2022-08-07T04:31:38.971Z,17.75
2022-08-07T04:47:04.980Z,17.75
2022-08-07T05:01:59.666Z,17.70
2022-08-07T05:16:56.944Z,17.61
2022-08-07T05:31:52.864Z,17.84
2022-08-07T05:46:40.201Z,18.00
2022-08-07T06:01:35.766Z,18.18
2022-08-07T06:16:22.393Z,18.61
2022-08-07T06:31:14.689Z,18.96
2022-08-07T06:46:06.572Z,19.28
2022-08-07T07:00:58.536Z,19.70
2022-08-07T07:15:51.746Z,20.24
2022-08-07T07:30:43.535Z,20.59
2022-08-07T07:46:40.245Z,21.10
2022-08-07T08:00:34.271Z,21.54
2022-08-07T08:15:23.188Z,21.97
2022-08-07T08:30:14.280Z,22.44
2022-08-07T08:45:26.862Z,22.85
2022-08-07T09:00:19.126Z,23.21
2022-08-07T09:16:21.901Z,23.64
2022-08-07T09:30:20.664Z,23.97
2022-08-07T09:47:24.789Z,24.42
2022-08-07T10:01:03.669Z,24.80
2022-08-07T10:32:07.523Z,25.48
2022-08-07T10:47:15.720Z,25.88
2022-08-07T11:02:33.129Z,26.10
2022-08-07T11:17:11.209Z,26.37
2022-08-07T11:32:06.434Z,27.00
2022-08-07T11:47:18.096Z,27.36
2022-08-07T12:02:20.603Z,27.68
2022-08-07T12:17:19.886Z,28.23
2022-08-07T12:32:12.062Z,28.40
2022-08-07T13:18:00.220Z,29.19
2022-08-07T13:34:30.113Z,29.46
2022-08-07T13:48:27.534Z,29.75
2022-08-07T14:03:29.917Z,29.88
2022-08-07T14:18:28.463Z,30.25
2022-08-07T14:33:23.343Z,30.52
2022-08-07T14:48:19.665Z,30.93
2022-08-07T15:03:18.608Z,31.31
2022-08-07T15:18:02.489Z,32.06
2022-08-07T15:33:04.056Z,32.17
2022-08-07T15:48:00.999Z,32.45
2022-08-07T16:02:46.585Z,32.66
2022-08-07T16:18:02.393Z,30.96
2022-08-07T16:34:02.105Z,30.16
2022-08-07T16:48:09.086Z,29.68
2022-08-07T18:04:24.577Z,28.45
2022-08-07T18:21:09.767Z,28.26
2022-08-07T18:34:37.649Z,28.08
2022-08-07T18:50:32.404Z,27.84
2022-08-07T19:04:39.778Z,27.51
2022-08-07T19:19:41.596Z,27.22
2022-08-07T19:34:38.691Z,26.86
2022-08-07T19:49:56.574Z,26.52
2022-08-07T20:04:31.424Z,26.20
2022-08-07T20:19:10.058Z,25.89
2022-08-07T20:34:01.398Z,25.59
2022-08-07T21:04:18.681Z,25.10
2022-08-07T21:18:46.468Z,24.76
2022-08-07T21:33:43.535Z,24.41
2022-08-07T21:48:42.544Z,24.14
2022-08-07T22:03:38.161Z,23.85
2022-08-07T22:18:43.968Z,23.64
2022-08-07T22:33:56.958Z,23.47
2022-08-07T22:49:09.588Z,23.34
2022-08-07T23:04:29.886Z,23.10
2022-08-07T23:19:51.506Z,22.81
2022-08-07T23:34:44.343Z,22.62
2022-08-07T23:49:52.865Z,22.44
